Time;durP1;ratioP1;P1;durP2;ratioP2;P2;SDS_P1;SDS_P2;PMS_P1;PMS_P2;Temp;Humidity;BMP_temperature;BMP_pressure;BME280_temperature;BME280_humidity;BME280_pressure;Samples;Min_cycle;Max_cycle;Signal;HPM_P1;HPM_P2
2023/09/15 00:00:32;;;;;;;1.95;1.23;;;10.50;99.90;;;;;;5005135;28;20034;-84
2023/09/15 00:02:58;;;;;;;2.22;1.55;;;10.50;99.90;;;;;;5005231;28;20023;-85
2023/09/15 00:05:28;;;;;;;2.08;1.10;;;10.40;99.90;;;;;;5008207;28;20025;-83
2023/09/15 00:07:56;;;;;;;2.25;1.25;;;10.40;99.90;;;;;;5012471;28;20077;-82
2023/09/15 00:10:22;;;;;;;1.20;1.10;;;10.30;99.90;;;;;;5001996;28;20034;-81
2023/09/15 00:12:48;;;;;;;2.65;1.40;;;10.30;99.90;;;;;;5009242;28;20023;-82
2023/09/15 00:15:15;;;;;;;2.47;1.10;;;10.30;99.90;;;;;;5003621;28;20111;-83
2023/09/15 00:17:41;;;;;;;2.35;1.55;;;10.20;99.90;;;;;;4996449;28;20029;-82
2023/09/15 00:20:13;;;;;;;3.15;1.35;;;10.20;99.90;;;;;;5015253;28;20037;-85
2023/09/15 00:22:48;;;;;;;1.70;1.30;;;10.20;99.90;;;;;;5008648;28;20586;-81
2023/09/15 00:25:18;;;;;;;2.72;1.52;;;10.20;99.90;;;;;;5018078;28;20497;-81
2023/09/15 00:27:44;;;;;;;2.05;1.65;;;10.10;99.90;;;;;;5003673;28;20027;-82
2023/09/15 00:30:10;;;;;;;1.25;1.10;;;10.10;99.90;;;;;;5017559;28;20117;-82
2023/09/15 00:32:36;;;;;;;2.50;1.48;;;10.00;99.90;;;;;;4999026;28;20023;-84
2023/09/15 00:35:01;;;;;;;2.50;1.60;;;10.00;99.90;;;;;;5001303;28;20041;-80
2023/09/15 00:37:27;;;;;;;1.58;1.05;;;10.00;99.90;;;;;;4993924;28;20022;-80
2023/09/15 00:39:52;;;;;;;2.85;1.08;;;10.00;99.90;;;;;;5012148;28;20117;-81
2023/09/15 00:42:19;;;;;;;1.13;0.93;;;10.00;99.90;;;;;;5007558;28;20030;-81
2023/09/15 00:44:45;;;;;;;1.38;1.27;;;10.00;99.90;;;;;;4998002;28;20464;-82
2023/09/15 00:47:11;;;;;;;5.25;1.35;;;10.00;99.90;;;;;;5010704;28;20052;-81
2023/09/15 00:49:37;;;;;;;1.90;1.08;;;10.00;99.90;;;;;;5005531;28;20021;-82
2023/09/15 00:52:04;;;;;;;1.00;0.90;;;9.90;99.90;;;;;;5008865;28;20014;-81
2023/09/15 00:54:30;;;;;;;1.90;1.48;;;9.90;99.90;;;;;;5010991;28;20076;-80
2023/09/15 00:56:56;;;;;;;2.40;1.52;;;9.90;99.90;;;;;;5009311;28;20018;-81
2023/09/15 00:59:22;;;;;;;1.83;1.40;;;9.80;99.90;;;;;;4996571;28;20128;-81
2023/09/15 01:01:48;;;;;;;2.20;1.33;;;9.80;99.90;;;;;;5002862;28;20027;-81
2023/09/15 01:04:13;;;;;;;2.55;1.52;;;9.80;99.90;;;;;;4998408;28;20034;-81
2023/09/15 01:06:42;;;;;;;1.75;1.20;;;9.80;99.90;;;;;;5003477;28;20042;-81
2023/09/15 01:09:08;;;;;;;3.13;1.30;;;9.70;99.90;;;;;;5005550;28;20105;-81
2023/09/15 01:11:34;;;;;;;2.13;1.48;;;9.70;99.90;;;;;;5004134;28;20033;-80
2023/09/15 01:14:00;;;;;;;1.40;1.30;;;9.70;99.90;;;;;;5005130;28;20026;-81
2023/09/15 01:16:36;;;;;;;1.58;1.48;;;9.70;99.90;;;;;;5009026;28;20036;-82
2023/09/15 01:19:31;;;;;;;3.53;1.55;;;9.60;99.90;;;;;;5022014;28;20034;-82
2023/09/15 01:22:19;;;;;;;1.27;1.10;;;9.60;99.90;;;;;;5012879;28;20088;-81
2023/09/15 01:24:58;;;;;;;1.10;1.00;;;9.60;99.90;;;;;;5008608;28;20452;-81
2023/09/15 01:27:46;;;;;;;2.72;1.20;;;9.50;99.90;;;;;;5009671;28;20014;-80
2023/09/15 01:30:12;;;;;;;3.95;1.30;;;9.50;99.90;;;;;;5008607;28;20034;-81
2023/09/15 01:32:41;;;;;;;1.77;1.33;;;9.50;99.90;;;;;;5016795;28;20117;-81
2023/09/15 01:35:07;;;;;;;1.40;1.30;;;9.40;99.90;;;;;;5003272;28;20406;-80
2023/09/15 01:37:32;;;;;;;2.80;1.35;;;9.40;99.90;;;;;;5010739;28;20038;-80
2023/09/15 01:40:01;;;;;;;1.80;1.25;;;9.40;99.90;;;;;;5012032;28;20031;-81
2023/09/15 01:42:26;;;;;;;3.42;1.58;;;9.40;99.90;;;;;;5006629;28;20041;-80
2023/09/15 01:44:52;;;;;;;1.92;1.20;;;9.30;99.90;;;;;;5016191;28;20021;-81
2023/09/15 01:47:20;;;;;;;2.38;1.30;;;9.40;99.90;;;;;;5001686;28;20026;-80
2023/09/15 01:49:47;;;;;;;2.55;1.75;;;9.30;99.90;;;;;;5006128;28;20109;-80
2023/09/15 01:52:13;;;;;;;2.17;1.73;;;9.30;99.90;;;;;;5008494;28;20034;-81
2023/09/15 01:54:39;;;;;;;3.38;1.50;;;9.30;99.90;;;;;;5019088;28;20034;-82
2023/09/15 01:57:04;;;;;;;1.33;1.17;;;9.30;99.90;;;;;;5010787;28;20026;-80
2023/09/15 01:59:30;;;;;;;1.55;1.40;;;9.30;99.90;;;;;;5009122;28;20456;-84
2023/09/15 02:01:56;;;;;;;2.38;1.55;;;9.30;99.90;;;;;;5005846;28;20025;-82
2023/09/15 02:04:21;;;;;;;2.15;1.70;;;9.30;99.90;;;;;;5017744;28;20064;-81
2023/09/15 02:06:47;;;;;;;1.88;1.38;;;9.30;99.90;;;;;;5013424;28;20026;-84
2023/09/15 02:09:14;;;;;;;2.20;1.25;;;9.30;99.90;;;;;;5029387;28;20028;-81
2023/09/15 02:11:39;;;;;;;1.83;1.65;;;9.30;99.90;;;;;;5016098;28;20038;-82
2023/09/15 02:14:05;;;;;;;3.83;1.23;;;9.30;99.90;;;;;;5013109;28;20096;-82
2023/09/15 02:16:31;;;;;;;2.28;1.42;;;9.20;99.90;;;;;;5018431;28;20371;-83
2023/09/15 02:18:57;;;;;;;1.85;1.50;;;9.20;99.90;;;;;;5004292;28;20061;-83
2023/09/15 02:21:22;;;;;;;3.67;1.35;;;9.20;99.90;;;;;;5017176;28;20022;-83
2023/09/15 02:23:48;;;;;;;1.15;0.93;;;9.20;99.90;;;;;;5010171;28;20034;-81
2023/09/15 02:26:14;;;;;;;1.40;1.30;;;9.20;99.90;;;;;;5016113;28;20053;-83
2023/09/15 02:28:40;;;;;;;3.03;1.30;;;9.20;99.90;;;;;;5008494;28;20036;-83
2023/09/15 02:31:06;;;;;;;2.60;1.40;;;9.20;99.90;;;;;;5005480;28;20028;-82
2023/09/15 02:33:32;;;;;;;1.45;1.35;;;9.20;99.90;;;;;;5012269;28;20403;-85
2023/09/15 02:35:58;;;;;;;3.28;1.40;;;9.20;99.90;;;;;;5028634;28;20489;-81
2023/09/15 02:38:24;;;;;;;4.55;1.38;;;9.20;99.90;;;;;;5016617;28;20115;-84
2023/09/15 02:40:49;;;;;;;1.90;1.52;;;9.10;99.90;;;;;;5013544;28;20533;-81
2023/09/15 02:43:15;;;;;;;2.28;1.55;;;9.10;99.90;;;;;;5017341;28;20034;-82
2023/09/15 02:45:40;;;;;;;1.90;1.50;;;9.10;99.90;;;;;;5009626;28;20033;-80
2023/09/15 02:48:06;;;;;;;5.70;1.67;;;9.10;99.90;;;;;;5015498;28;20034;-84
2023/09/15 02:50:32;;;;;;;2.95;1.70;;;9.10;99.90;;;;;;5012772;28;20465;-81
2023/09/15 02:52:59;;;;;;;1.70;1.27;;;9.00;99.90;;;;;;5004840;28;20018;-81
2023/09/15 02:55:24;;;;;;;1.65;1.20;;;9.00;99.90;;;;;;5013344;28;20030;-83
2023/09/15 02:57:51;;;;;;;1.20;1.05;;;9.00;99.90;;;;;;5018809;28;20708;-82
2023/09/15 03:00:17;;;;;;;6.20;1.23;;;9.00;99.90;;;;;;5020044;28;20507;-82
2023/09/15 03:02:44;;;;;;;4.78;1.10;;;9.00;99.90;;;;;;5011628;28;20128;-83
2023/09/15 03:05:10;;;;;;;2.60;1.55;;;9.00;99.90;;;;;;5014280;28;20046;-81
2023/09/15 03:07:39;;;;;;;3.22;1.35;;;9.00;99.90;;;;;;5004577;28;20036;-81
2023/09/15 03:10:08;;;;;;;2.92;1.33;;;9.00;99.90;;;;;;5009877;28;20017;-82
2023/09/15 03:12:34;;;;;;;5.60;1.63;;;9.00;99.90;;;;;;4998698;28;20381;-83
2023/09/15 03:15:06;;;;;;;1.55;1.23;;;9.00;99.90;;;;;;5012841;28;20061;-80
2023/09/15 03:17:33;;;;;;;2.78;1.52;;;9.00;99.90;;;;;;5014554;28;20030;-81
2023/09/15 03:19:58;;;;;;;4.10;1.50;;;8.90;99.90;;;;;;5005110;28;20037;-79
2023/09/15 03:22:24;;;;;;;1.63;1.35;;;8.90;99.90;;;;;;5013649;28;20023;-81
2023/09/15 03:24:50;;;;;;;3.30;1.20;;;8.90;99.90;;;;;;5008702;28;20022;-81
2023/09/15 03:27:15;;;;;;;1.60;1.50;;;8.90;99.90;;;;;;5002770;28;20026;-81
2023/09/15 03:29:41;;;;;;;1.30;0.98;;;8.90;99.90;;;;;;5007671;28;20026;-81
2023/09/15 03:32:06;;;;;;;1.40;1.30;;;8.80;99.90;;;;;;5015514;28;20017;-81
2023/09/15 03:34:32;;;;;;;2.10;1.33;;;8.90;99.90;;;;;;5004018;28;20037;-81
2023/09/15 03:36:59;;;;;;;1.30;1.20;;;8.80;99.90;;;;;;5012142;28;20025;-81
2023/09/15 03:39:24;;;;;;;2.38;1.40;;;8.80;99.90;;;;;;5006602;28;20029;-81
2023/09/15 03:41:50;;;;;;;2.10;1.48;;;8.80;99.90;;;;;;5011794;28;20110;-82
2023/09/15 03:44:15;;;;;;;1.42;1.33;;;8.80;99.90;;;;;;5004904;28;20022;-81
2023/09/15 03:46:41;;;;;;;1.58;1.25;;;8.70;99.90;;;;;;5003844;28;20017;-81
2023/09/15 03:49:07;;;;;;;2.10;1.50;;;8.70;99.90;;;;;;5012041;28;20018;-81
2023/09/15 03:51:32;;;;;;;1.38;1.27;;;8.70;99.90;;;;;;5007425;28;20049;-81
2023/09/15 03:53:58;;;;;;;1.77;1.35;;;8.70;99.90;;;;;;5007825;28;20076;-82
2023/09/15 03:56:24;;;;;;;2.42;1.45;;;8.70;99.90;;;;;;5016695;28;20095;-82
2023/09/15 03:58:51;;;;;;;2.50;1.33;;;8.60;99.90;;;;;;5006276;28;20026;-81
2023/09/15 04:01:20;;;;;;;3.45;1.60;;;8.60;99.90;;;;;;5010966;28;20013;-82
2023/09/15 04:03:46;;;;;;;5.25;1.70;;;8.60;99.90;;;;;;5011448;28;20099;-82
2023/09/15 04:06:11;;;;;;;1.98;1.77;;;8.60;99.90;;;;;;4999527;28;20154;-83
2023/09/15 04:08:37;;;;;;;1.75;1.38;;;8.60;99.90;;;;;;5008879;28;20072;-81
2023/09/15 04:11:02;;;;;;;3.15;1.77;;;8.60;99.90;;;;;;5015071;28;20053;-81
2023/09/15 04:13:29;;;;;;;2.42;1.52;;;8.60;99.90;;;;;;5013190;28;20592;-81
2023/09/15 04:15:56;;;;;;;3.72;1.58;;;8.60;99.90;;;;;;5022829;28;20047;-81
2023/09/15 04:18:22;;;;;;;2.25;1.65;;;8.60;99.90;;;;;;5016043;28;20536;-82
2023/09/15 04:20:49;;;;;;;3.35;1.83;;;8.60;99.90;;;;;;5006677;28;20022;-82
2023/09/15 04:23:15;;;;;;;2.33;1.50;;;8.60;99.90;;;;;;5014522;28;20022;-81
2023/09/15 04:25:41;;;;;;;1.77;1.60;;;8.60;99.90;;;;;;5008531;28;20065;-82
2023/09/15 04:28:07;;;;;;;3.78;1.60;;;8.60;99.90;;;;;;5017047;28;20025;-81
2023/09/15 04:30:33;;;;;;;2.08;1.55;;;8.70;99.90;;;;;;5002207;28;20036;-81
2023/09/15 04:32:59;;;;;;;3.03;1.95;;;8.70;99.90;;;;;;5016018;28;20010;-85
2023/09/15 04:35:25;;;;;;;1.58;1.40;;;8.70;99.90;;;;;;5016812;28;20529;-81
2023/09/15 04:37:51;;;;;;;1.67;1.58;;;8.70;99.90;;;;;;5009225;28;20109;-83
2023/09/15 04:40:16;;;;;;;2.45;1.75;;;8.70;99.90;;;;;;5019030;28;20030;-81
2023/09/15 04:42:45;;;;;;;5.35;2.42;;;8.70;99.90;;;;;;5012814;28;20034;-81
2023/09/15 04:45:11;;;;;;;2.10;1.90;;;8.80;99.90;;;;;;5010827;28;20038;-82
2023/09/15 04:47:38;;;;;;;3.97;2.40;;;8.80;99.90;;;;;;5013716;28;20026;-82
2023/09/15 04:50:05;;;;;;;3.65;1.90;;;8.80;99.90;;;;;;5027079;28;20410;-81
2023/09/15 04:52:30;;;;;;;3.83;2.22;;;8.90;99.90;;;;;;5013042;28;20064;-81
2023/09/15 04:54:56;;;;;;;4.18;2.13;;;8.90;99.90;;;;;;5005549;28;20058;-82
2023/09/15 04:57:22;;;;;;;2.33;1.90;;;8.90;99.90;;;;;;5027086;28;20033;-82
2023/09/15 04:59:48;;;;;;;3.40;2.42;;;8.90;99.90;;;;;;5007320;28;20026;-81
2023/09/15 05:02:14;;;;;;;2.30;2.10;;;8.90;99.90;;;;;;5007058;28;20088;-83
2023/09/15 05:04:40;;;;;;;4.10;2.03;;;8.90;99.90;;;;;;5032263;28;20030;-80
2023/09/15 05:07:06;;;;;;;3.65;1.83;;;8.90;99.90;;;;;;5026065;28;20026;-82
2023/09/15 05:09:31;;;;;;;3.03;2.42;;;8.90;99.90;;;;;;5029728;28;20050;-84
2023/09/15 05:11:57;;;;;;;3.28;1.90;;;8.90;99.90;;;;;;5037038;28;20021;-84
2023/09/15 05:14:22;;;;;;;2.25;2.05;;;8.90;99.90;;;;;;5014580;28;20405;-85
2023/09/15 05:16:49;;;;;;;1.90;1.73;;;8.90;99.90;;;;;;5008393;28;20113;-86
2023/09/15 05:19:14;;;;;;;4.03;2.20;;;8.90;99.90;;;;;;5012743;28;20540;-83
2023/09/15 05:21:41;;;;;;;2.45;2.05;;;8.90;99.90;;;;;;5016279;28;20030;-82
2023/09/15 05:24:07;;;;;;;3.08;2.30;;;9.00;99.90;;;;;;5018333;28;20261;-84
2023/09/15 05:26:32;;;;;;;2.80;2.50;;;9.00;99.90;;;;;;5015937;28;20098;-84
2023/09/15 05:28:58;;;;;;;2.20;1.70;;;9.00;99.90;;;;;;5015583;28;20623;-82
2023/09/15 05:31:25;;;;;;;2.60;1.88;;;9.00;99.90;;;;;;5002610;28;20537;-83
2023/09/15 05:33:55;;;;;;;3.42;2.05;;;9.00;99.90;;;;;;5020044;28;20060;-83
2023/09/15 05:36:21;;;;;;;2.45;1.98;;;9.00;99.90;;;;;;5008057;28;20121;-82
2023/09/15 05:38:47;;;;;;;2.03;1.77;;;9.00;99.90;;;;;;5016037;28;20037;-81
2023/09/15 05:41:13;;;;;;;3.47;2.30;;;9.10;99.90;;;;;;5005085;28;20030;-85
2023/09/15 05:43:39;;;;;;;3.50;1.98;;;9.10;99.90;;;;;;5024140;28;20136;-84
2023/09/15 05:46:05;;;;;;;2.38;2.10;;;9.10;99.90;;;;;;5017544;28;20101;-81
2023/09/15 05:48:31;;;;;;;4.03;2.00;;;9.10;99.90;;;;;;5018081;28;20053;-84
2023/09/15 05:50:56;;;;;;;2.88;2.17;;;9.20;99.90;;;;;;5011302;28;20061;-80
2023/09/15 05:53:22;;;;;;;2.78;2.42;;;9.20;99.90;;;;;;5011173;28;20111;-81
2023/09/15 05:55:47;;;;;;;2.13;1.92;;;9.10;99.90;;;;;;5007677;28;20030;-82
2023/09/15 05:58:13;;;;;;;2.80;2.13;;;9.10;99.90;;;;;;5016506;28;20448;-81
2023/09/15 06:00:41;;;;;;;3.53;3.03;;;9.20;99.90;;;;;;5006413;28;20026;-81
2023/09/15 06:03:07;;;;;;;3.35;2.30;;;9.20;99.90;;;;;;5008747;28;20034;-81
2023/09/15 06:05:34;;;;;;;3.22;2.05;;;9.20;99.90;;;;;;5009838;28;20033;-81
2023/09/15 06:07:59;;;;;;;4.25;2.10;;;9.30;99.90;;;;;;5009653;28;20113;-82
2023/09/15 06:10:25;;;;;;;2.78;2.45;;;9.30;99.90;;;;;;5016021;28;20156;-81
2023/09/15 06:12:51;;;;;;;2.90;2.13;;;9.40;99.90;;;;;;5024553;28;20099;-84
2023/09/15 06:15:18;;;;;;;3.40;2.85;;;9.40;99.90;;;;;;5000786;28;20030;-84
2023/09/15 06:17:43;;;;;;;5.35;2.80;;;9.40;99.90;;;;;;5016421;28;20605;-82
2023/09/15 06:20:09;;;;;;;3.67;2.60;;;9.50;99.90;;;;;;5025751;28;20049;-83
2023/09/15 06:22:34;;;;;;;3.60;2.40;;;9.50;99.90;;;;;;5012017;28;20577;-85
2023/09/15 06:25:01;;;;;;;3.03;2.35;;;9.50;99.90;;;;;;5010435;28;20029;-82
2023/09/15 06:27:26;;;;;;;3.28;2.58;;;9.60;99.90;;;;;;5009627;28;20014;-82
2023/09/15 06:29:52;;;;;;;4.22;2.95;;;9.70;99.90;;;;;;5017845;28;20026;-83
2023/09/15 06:32:18;;;;;;;3.53;2.17;;;9.70;99.90;;;;;;5003729;28;20014;-82
2023/09/15 06:34:44;;;;;;;3.35;2.33;;;9.80;99.90;;;;;;5010992;28;20478;-83
2023/09/15 06:37:09;;;;;;;3.22;2.55;;;9.90;99.90;;;;;;4999763;28;20132;-83
2023/09/15 06:39:36;;;;;;;4.80;2.85;;;9.90;99.90;;;;;;5014000;28;20103;-84
2023/09/15 06:42:04;;;;;;;4.57;3.53;;;10.00;99.90;;;;;;5001080;28;20030;-83
2023/09/15 06:44:31;;;;;;;5.25;2.80;;;10.10;99.90;;;;;;5009334;28;20022;-85
2023/09/15 06:46:56;;;;;;;3.85;2.90;;;10.10;99.90;;;;;;5008358;28;20032;-83
2023/09/15 06:49:22;;;;;;;3.10;2.40;;;10.20;99.90;;;;;;5014240;28;20026;-83
2023/09/15 06:51:50;;;;;;;2.72;2.40;;;10.30;99.90;;;;;;5009023;28;20030;-82
2023/09/15 06:54:16;;;;;;;4.38;3.03;;;10.40;99.90;;;;;;5017702;28;20088;-82
2023/09/15 06:56:41;;;;;;;3.50;2.88;;;10.40;99.90;;;;;;5012344;28;20040;-82
2023/09/15 06:59:07;;;;;;;3.72;2.50;;;10.50;99.90;;;;;;5001017;28;20026;-82
2023/09/15 07:01:32;;;;;;;3.28;2.60;;;10.60;99.90;;;;;;5019988;28;20037;-83
2023/09/15 07:03:58;;;;;;;3.05;2.67;;;10.70;99.90;;;;;;5000561;28;20022;-82
2023/09/15 07:06:23;;;;;;;3.10;2.72;;;10.80;99.90;;;;;;5006993;28;20037;-81
2023/09/15 07:08:49;;;;;;;3.53;2.80;;;10.80;99.90;;;;;;5017542;28;20014;-84
2023/09/15 07:11:15;;;;;;;3.30;2.65;;;11.00;99.90;;;;;;5009570;28;20060;-85
2023/09/15 07:13:41;;;;;;;4.18;2.90;;;11.10;99.90;;;;;;5014812;28;20057;-82
2023/09/15 07:16:06;;;;;;;3.80;2.50;;;11.10;99.90;;;;;;5014824;28;20022;-83
2023/09/15 07:18:32;;;;;;;4.13;2.63;;;11.30;99.90;;;;;;5009638;28;20026;-82
2023/09/15 07:20:57;;;;;;;5.32;2.95;;;11.50;99.90;;;;;;5015216;28;20355;-84
2023/09/15 07:23:23;;;;;;;3.78;2.55;;;11.60;99.90;;;;;;5005406;28;20625;-83
2023/09/15 07:25:48;;;;;;;3.20;2.25;;;11.80;99.90;;;;;;5011615;28;20022;-83
2023/09/15 07:28:14;;;;;;;4.40;2.58;;;12.00;99.90;;;;;;5001806;28;20021;-84
2023/09/15 07:30:41;;;;;;;2.30;2.05;;;12.20;99.90;;;;;;5005510;28;20029;-84
2023/09/15 07:33:08;;;;;;;2.63;2.28;;;12.40;99.90;;;;;;5014659;28;20018;-85
2023/09/15 07:35:35;;;;;;;5.20;2.58;;;12.60;99.90;;;;;;5019181;28;20026;-82
2023/09/15 07:38:04;;;;;;;3.97;2.15;;;12.70;99.90;;;;;;5015695;28;20022;-82
2023/09/15 07:40:30;;;;;;;3.45;2.45;;;12.90;99.90;;;;;;5009624;28;20030;-84
2023/09/15 07:42:56;;;;;;;3.38;1.70;;;13.00;99.90;;;;;;5005764;28;20068;-85
2023/09/15 07:45:21;;;;;;;3.78;2.03;;;13.20;99.90;;;;;;5020226;28;20108;-83
2023/09/15 07:47:47;;;;;;;2.47;1.58;;;13.20;99.90;;;;;;5009381;28;20108;-84
2023/09/15 07:50:13;;;;;;;3.58;1.67;;;13.40;99.90;;;;;;5024213;28;20048;-82
2023/09/15 07:52:39;;;;;;;3.13;1.80;;;13.50;99.90;;;;;;5005838;28;20084;-82
2023/09/15 07:55:05;;;;;;;2.47;2.20;;;13.70;99.90;;;;;;5007842;28;20022;-83
2023/09/15 07:57:32;;;;;;;2.83;1.98;;;13.90;99.90;;;;;;5022508;28;20021;-86
2023/09/15 07:59:59;;;;;;;3.97;2.13;;;14.10;99.90;;;;;;5004394;28;20077;-82
2023/09/15 08:02:26;;;;;;;3.00;1.80;;;14.20;99.90;;;;;;5010110;28;20490;-84
2023/09/15 08:04:52;;;;;;;2.15;1.85;;;14.40;99.90;;;;;;5005295;28;20056;-85
2023/09/15 08:07:18;;;;;;;3.42;1.73;;;14.50;99.90;;;;;;5012965;28;20022;-82
2023/09/15 08:09:43;;;;;;;2.97;1.80;;;14.60;99.90;;;;;;5002570;28;20025;-81
2023/09/15 08:12:09;;;;;;;1.88;1.77;;;14.80;99.90;;;;;;5008351;28;20017;-81
2023/09/15 08:14:34;;;;;;;3.15;1.58;;;14.90;99.90;;;;;;5004883;28;20029;-82
2023/09/15 08:17:00;;;;;;;2.65;1.27;;;15.00;99.90;;;;;;5021116;28;20023;-82
2023/09/15 08:19:27;;;;;;;1.88;1.73;;;15.10;99.90;;;;;;5022153;28;20026;-82
2023/09/15 08:21:53;;;;;;;3.28;1.63;;;15.20;99.90;;;;;;5016678;28;20117;-82
2023/09/15 08:24:20;;;;;;;2.38;1.52;;;15.30;99.90;;;;;;5000603;28;20414;-84
2023/09/15 08:26:46;;;;;;;3.92;1.45;;;15.30;99.90;;;;;;5013217;28;20097;-84
2023/09/15 08:29:12;;;;;;;3.15;1.48;;;15.50;99.90;;;;;;5015120;28;20034;-83
2023/09/15 08:31:38;;;;;;;2.53;1.50;;;15.50;99.90;;;;;;5005822;28;20112;-84
2023/09/15 08:34:03;;;;;;;7.90;1.67;;;15.60;99.90;;;;;;5004247;28;20034;-82
2023/09/15 08:36:29;;;;;;;2.65;1.67;;;15.70;99.90;;;;;;5017914;28;20037;-82
2023/09/15 08:38:54;;;;;;;2.25;1.38;;;15.70;99.90;;;;;;4997935;28;20023;-81
2023/09/15 08:41:29;;;;;;;1.95;1.23;;;15.80;99.90;;;;;;4999213;28;20030;-83
2023/09/15 08:43:55;;;;;;;3.40;1.55;;;15.90;99.90;;;;;;5019075;28;20042;-84
2023/09/15 08:46:22;;;;;;;4.97;1.77;;;15.90;99.90;;;;;;5025490;28;20477;-84
2023/09/15 08:48:51;;;;;;;4.28;1.55;;;16.00;99.90;;;;;;5021598;28;20026;-84
2023/09/15 08:51:17;;;;;;;2.05;1.58;;;16.10;99.90;;;;;;5031942;28;20021;-83
2023/09/15 08:53:45;;;;;;;2.20;1.40;;;16.10;99.90;;;;;;5006387;28;20042;-85
2023/09/15 08:56:10;;;;;;;2.65;1.48;;;16.10;99.90;;;;;;5012165;28;20018;-83
2023/09/15 08:58:36;;;;;;;3.55;2.08;;;16.20;99.90;;;;;;5019757;28;20025;-85
2023/09/15 09:01:07;;;;;;;2.67;1.75;;;16.20;99.90;;;;;;5020483;28;20108;-83
2023/09/15 09:03:38;;;;;;;2.75;1.70;;;16.30;99.90;;;;;;5009668;28;20140;-82
2023/09/15 09:06:09;;;;;;;1.85;1.60;;;16.40;99.90;;;;;;5007164;28;20023;-83
2023/09/15 09:08:37;;;;;;;1.75;1.20;;;16.40;99.90;;;;;;5007396;28;20033;-85
2023/09/15 09:11:03;;;;;;;1.60;1.20;;;16.40;99.90;;;;;;5007870;28;20026;-82
2023/09/15 09:13:28;;;;;;;1.60;1.30;;;16.50;99.90;;;;;;5006226;28;20436;-82
2023/09/15 09:15:54;;;;;;;1.75;1.30;;;16.50;99.90;;;;;;5008589;28;20117;-83
2023/09/15 09:18:20;;;;;;;1.92;1.25;;;16.60;99.90;;;;;;5009557;28;20014;-82
2023/09/15 09:20:50;;;;;;;4.47;1.67;;;16.60;99.90;;;;;;5015015;28;20017;-84
2023/09/15 09:23:20;;;;;;;2.10;1.80;;;16.70;99.90;;;;;;5007051;28;20064;-81
2023/09/15 09:25:46;;;;;;;2.03;1.40;;;16.70;99.90;;;;;;5014756;28;20025;-82
2023/09/15 09:28:13;;;;;;;2.13;1.50;;;16.80;99.90;;;;;;5006508;28;20022;-83
2023/09/15 09:30:39;;;;;;;5.28;1.48;;;16.90;99.90;;;;;;5009361;28;20056;-82
2023/09/15 09:33:05;;;;;;;2.45;1.70;;;16.90;99.90;;;;;;5013872;28;20100;-82
2023/09/15 09:35:31;;;;;;;4.55;1.55;;;17.00;99.90;;;;;;5007912;28;20508;-82
2023/09/15 09:38:00;;;;;;;4.30;1.88;;;17.00;99.90;;;;;;5026388;28;20040;-83
2023/09/15 09:40:26;;;;;;;3.17;1.83;;;17.10;99.90;;;;;;5001821;28;20044;-84
2023/09/15 09:42:53;;;;;;;3.00;1.67;;;17.10;99.90;;;;;;5016092;28;20121;-82
2023/09/15 09:45:29;;;;;;;2.40;1.42;;;17.20;99.90;;;;;;5006505;28;20088;-83
2023/09/15 09:47:55;;;;;;;2.28;1.35;;;17.20;99.90;;;;;;4997624;28;20030;-83
2023/09/15 09:50:22;;;;;;;2.47;1.70;;;17.30;99.90;;;;;;4996834;28;20554;-83
2023/09/15 09:52:48;;;;;;;3.35;1.90;;;17.30;99.90;;;;;;5011159;28;20018;-82
2023/09/15 09:55:14;;;;;;;1.95;1.30;;;17.40;99.90;;;;;;5018618;28;20140;-82
2023/09/15 09:57:40;;;;;;;2.67;1.23;;;17.40;99.90;;;;;;5000051;28;20085;-81
2023/09/15 10:00:10;;;;;;;4.32;1.60;;;17.40;99.90;;;;;;5001647;28;20054;-81
2023/09/15 10:02:39;;;;;;;3.30;1.42;;;17.40;99.90;;;;;;5007920;28;20119;-84
2023/09/15 10:05:05;;;;;;;4.50;1.20;;;17.50;99.90;;;;;;5010532;28;20022;-83
2023/09/15 10:07:31;;;;;;;3.47;1.88;;;17.60;99.90;;;;;;5003668;28;20113;-82
2023/09/15 10:09:58;;;;;;;2.50;1.52;;;17.60;99.90;;;;;;5007846;28;20068;-82
2023/09/15 10:12:24;;;;;;;3.05;1.65;;;17.60;99.90;;;;;;5011923;28;20445;-81
2023/09/15 10:14:51;;;;;;;2.70;1.52;;;17.70;99.90;;;;;;5008299;28;20594;-83
2023/09/15 10:17:18;;;;;;;2.55;1.40;;;17.80;99.90;;;;;;5008832;28;20125;-84
2023/09/15 10:19:47;;;;;;;2.15;1.25;;;17.80;99.90;;;;;;4998848;28;20045;-82
2023/09/15 10:22:13;;;;;;;1.85;1.60;;;17.80;99.90;;;;;;5010574;28;20421;-82
2023/09/15 10:24:43;;;;;;;3.53;1.67;;;17.90;99.90;;;;;;5010610;28;20037;-82
2023/09/15 10:27:09;;;;;;;3.00;1.77;;;17.90;99.90;;;;;;5009503;28;20428;-82
2023/09/15 10:29:37;;;;;;;4.13;2.17;;;18.00;99.90;;;;;;5013458;28;20124;-84
2023/09/15 10:32:03;;;;;;;3.72;1.65;;;18.00;99.90;;;;;;5018359;28;20169;-84
2023/09/15 10:34:29;;;;;;;3.80;2.05;;;18.10;99.90;;;;;;5004867;28;20073;-83
2023/09/15 10:36:59;;;;;;;2.42;1.40;;;18.10;99.90;;;;;;5006070;28;20107;-82
2023/09/15 10:39:38;;;;;;;3.20;1.83;;;18.10;99.90;;;;;;5013850;28;20021;-84
2023/09/15 10:42:13;;;;;;;5.22;1.95;;;18.10;99.90;;;;;;5005650;28;20414;-82
2023/09/15 10:44:40;;;;;;;3.00;1.43;;;18.20;99.90;;;;;;5005239;28;20030;-83
2023/09/15 10:47:20;;;;;;;2.45;1.90;;;18.20;99.90;;;;;;5010936;28;20270;-82
2023/09/15 10:49:49;;;;;;;3.47;1.50;;;18.30;99.90;;;;;;5014378;28;20026;-86
2023/09/15 10:52:14;;;;;;;7.50;2.30;;;18.40;99.90;;;;;;5014294;28;20033;-82
2023/09/15 10:54:40;;;;;;;3.55;1.95;;;18.40;99.90;;;;;;5014188;28;20034;-83
2023/09/15 10:57:08;;;;;;;1.95;1.65;;;18.50;99.90;;;;;;5015750;28;20118;-83
2023/09/15 10:59:35;;;;;;;2.50;1.88;;;18.50;99.90;;;;;;5017505;28;20060;-83
2023/09/15 11:02:01;;;;;;;5.85;2.00;;;18.50;99.90;;;;;;5014929;28;20589;-82
2023/09/15 11:04:28;;;;;;;3.28;2.17;;;18.60;99.90;;;;;;5010872;28;20204;-82
2023/09/15 11:06:54;;;;;;;5.05;2.03;;;18.60;99.90;;;;;;5004356;28;20023;-82
2023/09/15 11:09:20;;;;;;;3.22;1.55;;;18.70;99.90;;;;;;5012089;28;20020;-83
2023/09/15 11:11:47;;;;;;;2.00;1.50;;;18.70;99.90;;;;;;5008981;28;20018;-82
2023/09/15 11:14:23;;;;;;;3.53;1.50;;;18.70;99.90;;;;;;5008834;28;20022;-82
2023/09/15 11:16:51;;;;;;;2.83;1.88;;;18.80;99.90;;;;;;5001074;28;20083;-81
2023/09/15 11:19:18;;;;;;;2.13;1.92;;;18.80;99.90;;;;;;5006398;28;20022;-82
2023/09/15 11:21:47;;;;;;;2.35;1.77;;;18.80;99.90;;;;;;5000498;28;20068;-83
2023/09/15 11:24:14;;;;;;;4.80;1.83;;;18.80;99.90;;;;;;5003677;28;20108;-82
2023/09/15 11:26:50;;;;;;;2.40;1.75;;;18.80;99.90;;;;;;5015444;28;20026;-82
2023/09/15 11:29:26;;;;;;;2.17;1.98;;;18.90;99.90;;;;;;5007268;28;20014;-81
2023/09/15 11:31:53;;;;;;;4.35;1.98;;;18.90;99.90;;;;;;5011243;28;20540;-82
2023/09/15 11:34:20;;;;;;;2.75;1.63;;;18.90;99.90;;;;;;5009231;28;20255;-83
2023/09/15 11:36:46;;;;;;;4.30;1.50;;;18.90;99.90;;;;;;5006111;28;20676;-82
2023/09/15 11:39:12;;;;;;;2.15;1.73;;;18.90;99.90;;;;;;5007283;28;20132;-82
2023/09/15 11:41:55;;;;;;;2.58;1.95;;;19.00;99.90;;;;;;5006479;28;20100;-85
2023/09/15 11:44:26;;;;;;;3.55;2.08;;;19.00;99.90;;;;;;5003567;28;20328;-81
2023/09/15 11:46:55;;;;;;;2.05;1.85;;;19.00;99.90;;;;;;5002474;28;20037;-81
2023/09/15 11:49:23;;;;;;;3.42;1.52;;;19.10;99.90;;;;;;5006325;28;20026;-83
2023/09/15 11:51:49;;;;;;;2.13;1.45;;;19.10;99.90;;;;;;5008034;28;20014;-84
2023/09/15 11:54:15;;;;;;;2.30;1.75;;;19.10;99.90;;;;;;5002346;28;20095;-84
2023/09/15 11:56:42;;;;;;;3.35;1.75;;;19.10;99.90;;;;;;5005960;28;20041;-83
2023/09/15 11:59:08;;;;;;;2.25;1.63;;;19.10;99.90;;;;;;4999736;28;20026;-82
2023/09/15 12:01:34;;;;;;;2.28;1.50;;;19.10;99.90;;;;;;5005775;28;20030;-83
2023/09/15 12:04:01;;;;;;;3.95;2.22;;;19.10;99.90;;;;;;5010278;28;20556;-84
2023/09/15 12:06:27;;;;;;;3.08;1.75;;;19.20;99.90;;;;;;5014452;28;20029;-81
2023/09/15 12:08:52;;;;;;;1.80;1.50;;;19.20;99.90;;;;;;5005640;28;20051;-82
2023/09/15 12:11:19;;;;;;;1.83;1.58;;;19.30;99.90;;;;;;5001826;28;20025;-84
2023/09/15 12:13:51;;;;;;;2.17;1.42;;;19.30;99.90;;;;;;5012259;28;20417;-85
2023/09/15 12:16:28;;;;;;;2.88;1.73;;;19.30;99.90;;;;;;4996766;28;20042;-81
2023/09/15 12:18:54;;;;;;;2.00;1.55;;;19.30;99.90;;;;;;5020108;28;20017;-82
2023/09/15 12:21:24;;;;;;;2.92;1.55;;;19.40;99.90;;;;;;5001357;28;20069;-85
2023/09/15 12:23:56;;;;;;;2.35;1.63;;;19.40;99.90;;;;;;4999311;28;20470;-82
2023/09/15 12:26:26;;;;;;;4.05;1.60;;;19.40;99.90;;;;;;4997230;28;20026;-84
2023/09/15 12:28:54;;;;;;;1.73;1.40;;;19.50;99.90;;;;;;5000045;28;20034;-82
2023/09/15 12:31:21;;;;;;;4.22;1.67;;;19.50;99.90;;;;;;5001548;28;20026;-82
2023/09/15 12:33:53;;;;;;;3.67;1.92;;;19.60;99.90;;;;;;5004235;28;20044;-82
2023/09/15 12:36:20;;;;;;;1.98;1.75;;;19.60;99.90;;;;;;5007763;28;20026;-86
2023/09/15 12:38:46;;;;;;;4.22;1.50;;;19.60;99.90;;;;;;5001136;28;20026;-84
2023/09/15 12:41:11;;;;;;;1.95;1.75;;;19.60;99.90;;;;;;5010347;28;20026;-83
2023/09/15 12:43:37;;;;;;;1.90;1.70;;;19.60;99.90;;;;;;5009801;28;20037;-80
2023/09/15 12:46:03;;;;;;;3.15;1.75;;;19.70;99.90;;;;;;5013363;28;20026;-82
2023/09/15 12:48:29;;;;;;;5.03;1.95;;;19.70;99.90;;;;;;5012266;28;20017;-81